Aviation Digital Data Service (ADDS)

Output produced by METARs form (0634 UTC 27 March 2017)
found at http://www.aviationweather.gov/adds/metars/
 
DFOO 270600Z 00000KT CAVOK 27/19 Q1011
TAF DFOO 270500Z 2706/2806 18010KT CAVOK
       
DFFD 270600Z 20006KT 160V230 8000 NSC 28/03 Q1011 TEMPO 4000 HZ
TAF DFFD 270500Z 2706/2812 07006G16KT 8000 NSC 
     TEMPO 2706/2710 4000 HZ 
     TEMPO 2717/2720 4000 HZ 
     TEMPO 2806/2810 4000 HZ